sensor_id;sensor_type;location;lat;lon;timestamp;P1;durP1;ratioP1;P2;durP2;ratioP2
4363;SDS011;15337;48.202;12.770;2022-10-16T00:01:08;4.07;;;3.77;;
4363;SDS011;15337;48.202;12.770;2022-10-16T00:03:36;4.40;;;4.10;;
4363;SDS011;15337;48.202;12.770;2022-10-16T00:06:03;7.83;;;5.10;;
4363;SDS011;15337;48.202;12.770;2022-10-16T00:08:31;6.33;;;5.27;;
4363;SDS011;15337;48.202;12.770;2022-10-16T00:11:00;6.13;;;5.47;;
4363;SDS011;15337;48.202;12.770;2022-10-16T00:13:28;5.63;;;5.13;;
4363;SDS011;15337;48.202;12.770;2022-10-16T00:15:55;4.90;;;4.50;;
4363;SDS011;15337;48.202;12.770;2022-10-16T00:18:23;5.30;;;4.90;;
4363;SDS011;15337;48.202;12.770;2022-10-16T00:20:50;5.00;;;4.60;;
4363;SDS011;15337;48.202;12.770;2022-10-16T00:23:17;11.90;;;5.23;;
4363;SDS011;15337;48.202;12.770;2022-10-16T00:25:45;3.47;;;3.17;;
4363;SDS011;15337;48.202;12.770;2022-10-16T00:28:22;3.40;;;3.20;;
4363;SDS011;15337;48.202;12.770;2022-10-16T00:30:49;13.33;;;3.07;;
4363;SDS011;15337;48.202;12.770;2022-10-16T00:33:16;5.80;;;3.93;;
4363;SDS011;15337;48.202;12.770;2022-10-16T00:35:42;3.50;;;3.17;;
4363;SDS011;15337;48.202;12.770;2022-10-16T00:38:09;3.40;;;3.10;;
4363;SDS011;15337;48.202;12.770;2022-10-16T00:40:36;3.57;;;3.17;;
4363;SDS011;15337;48.202;12.770;2022-10-16T00:43:07;6.90;;;3.30;;
4363;SDS011;15337;48.202;12.770;2022-10-16T00:45:40;4.00;;;2.70;;
4363;SDS011;15337;48.202;12.770;2022-10-16T00:48:07;3.27;;;2.97;;
4363;SDS011;15337;48.202;12.770;2022-10-16T00:50:39;4.20;;;3.70;;
4363;SDS011;15337;48.202;12.770;2022-10-16T00:53:08;4.90;;;3.33;;
4363;SDS011;15337;48.202;12.770;2022-10-16T00:55:36;6.00;;;3.70;;
4363;SDS011;15337;48.202;12.770;2022-10-16T00:58:03;8.53;;;4.73;;
4363;SDS011;15337;48.202;12.770;2022-10-16T01:00:30;4.27;;;3.90;;
4363;SDS011;15337;48.202;12.770;2022-10-16T01:03:00;4.40;;;4.10;;
4363;SDS011;15337;48.202;12.770;2022-10-16T01:05:30;3.10;;;2.90;;
4363;SDS011;15337;48.202;12.770;2022-10-16T01:08:08;4.40;;;2.80;;
4363;SDS011;15337;48.202;12.770;2022-10-16T01:10:40;5.30;;;3.47;;
4363;SDS011;15337;48.202;12.770;2022-10-16T01:13:13;5.63;;;3.60;;
4363;SDS011;15337;48.202;12.770;2022-10-16T01:15:45;16.73;;;3.77;;
4363;SDS011;15337;48.202;12.770;2022-10-16T01:18:16;3.50;;;3.10;;
4363;SDS011;15337;48.202;12.770;2022-10-16T01:20:50;13.20;;;4.50;;
4363;SDS011;15337;48.202;12.770;2022-10-16T01:23:22;5.20;;;4.90;;
4363;SDS011;15337;48.202;12.770;2022-10-16T01:26:00;7.20;;;4.63;;
4363;SDS011;15337;48.202;12.770;2022-10-16T01:28:47;3.30;;;3.10;;
4363;SDS011;15337;48.202;12.770;2022-10-16T01:31:19;3.20;;;3.00;;
4363;SDS011;15337;48.202;12.770;2022-10-16T01:33:51;2.83;;;2.63;;
4363;SDS011;15337;48.202;12.770;2022-10-16T01:36:26;4.47;;;3.53;;
4363;SDS011;15337;48.202;12.770;2022-10-16T01:39:01;4.47;;;4.17;;
4363;SDS011;15337;48.202;12.770;2022-10-16T01:41:30;7.07;;;6.43;;
4363;SDS011;15337;48.202;12.770;2022-10-16T01:44:02;5.73;;;5.27;;
4363;SDS011;15337;48.202;12.770;2022-10-16T01:46:34;10.47;;;7.73;;
4363;SDS011;15337;48.202;12.770;2022-10-16T01:49:03;8.50;;;7.17;;
4363;SDS011;15337;48.202;12.770;2022-10-16T01:51:32;16.77;;;13.93;;
4363;SDS011;15337;48.202;12.770;2022-10-16T01:54:01;21.73;;;12.17;;
4363;SDS011;15337;48.202;12.770;2022-10-16T01:56:30;8.20;;;7.60;;
4363;SDS011;15337;48.202;12.770;2022-10-16T01:58:58;7.87;;;7.23;;
4363;SDS011;15337;48.202;12.770;2022-10-16T02:01:30;6.43;;;4.00;;
4363;SDS011;15337;48.202;12.770;2022-10-16T02:04:02;4.40;;;4.10;;
4363;SDS011;15337;48.202;12.770;2022-10-16T02:06:33;11.03;;;6.60;;
4363;SDS011;15337;48.202;12.770;2022-10-16T02:09:01;9.00;;;8.07;;
4363;SDS011;15337;48.202;12.770;2022-10-16T02:11:27;8.70;;;7.33;;
4363;SDS011;15337;48.202;12.770;2022-10-16T02:13:55;14.87;;;10.93;;
4363;SDS011;15337;48.202;12.770;2022-10-16T02:16:34;7.73;;;5.83;;
4363;SDS011;15337;48.202;12.770;2022-10-16T02:19:02;5.37;;;4.97;;
4363;SDS011;15337;48.202;12.770;2022-10-16T02:21:33;4.50;;;4.20;;
4363;SDS011;15337;48.202;12.770;2022-10-16T02:24:06;5.00;;;4.10;;
4363;SDS011;15337;48.202;12.770;2022-10-16T02:26:40;11.63;;;4.50;;
4363;SDS011;15337;48.202;12.770;2022-10-16T02:29:16;4.37;;;4.07;;
4363;SDS011;15337;48.202;12.770;2022-10-16T02:31:48;9.83;;;5.90;;
4363;SDS011;15337;48.202;12.770;2022-10-16T02:34:18;5.60;;;4.73;;
4363;SDS011;15337;48.202;12.770;2022-10-16T02:36:48;5.30;;;4.90;;
4363;SDS011;15337;48.202;12.770;2022-10-16T02:39:16;14.77;;;5.87;;
4363;SDS011;15337;48.202;12.770;2022-10-16T02:41:44;18.80;;;4.23;;
4363;SDS011;15337;48.202;12.770;2022-10-16T02:44:11;6.50;;;3.50;;
4363;SDS011;15337;48.202;12.770;2022-10-16T02:46:38;24.27;;;8.83;;
4363;SDS011;15337;48.202;12.770;2022-10-16T02:49:06;9.83;;;7.30;;
4363;SDS011;15337;48.202;12.770;2022-10-16T02:51:33;10.93;;;6.80;;
4363;SDS011;15337;48.202;12.770;2022-10-16T02:54:00;16.90;;;7.30;;
4363;SDS011;15337;48.202;12.770;2022-10-16T02:56:27;7.17;;;6.57;;
4363;SDS011;15337;48.202;12.770;2022-10-16T02:58:55;7.07;;;6.20;;
4363;SDS011;15337;48.202;12.770;2022-10-16T03:01:21;7.37;;;6.60;;
4363;SDS011;15337;48.202;12.770;2022-10-16T03:03:48;5.90;;;5.33;;
4363;SDS011;15337;48.202;12.770;2022-10-16T03:06:17;9.60;;;4.83;;
4363;SDS011;15337;48.202;12.770;2022-10-16T03:08:43;5.17;;;4.50;;
4363;SDS011;15337;48.202;12.770;2022-10-16T03:11:10;6.23;;;5.50;;
4363;SDS011;15337;48.202;12.770;2022-10-16T03:13:37;6.13;;;5.53;;
4363;SDS011;15337;48.202;12.770;2022-10-16T03:16:04;7.10;;;6.40;;
4363;SDS011;15337;48.202;12.770;2022-10-16T03:18:31;7.53;;;4.70;;
4363;SDS011;15337;48.202;12.770;2022-10-16T03:20:58;7.60;;;7.07;;
4363;SDS011;15337;48.202;12.770;2022-10-16T03:23:26;10.70;;;6.43;;
4363;SDS011;15337;48.202;12.770;2022-10-16T03:25:53;5.77;;;5.43;;
4363;SDS011;15337;48.202;12.770;2022-10-16T03:28:19;10.23;;;6.10;;
4363;SDS011;15337;48.202;12.770;2022-10-16T03:30:46;6.83;;;6.23;;
4363;SDS011;15337;48.202;12.770;2022-10-16T03:33:13;6.63;;;5.93;;
4363;SDS011;15337;48.202;12.770;2022-10-16T03:35:40;9.77;;;7.43;;
4363;SDS011;15337;48.202;12.770;2022-10-16T03:38:07;6.17;;;4.83;;
4363;SDS011;15337;48.202;12.770;2022-10-16T03:40:35;6.07;;;5.57;;
4363;SDS011;15337;48.202;12.770;2022-10-16T03:43:02;13.33;;;5.17;;
4363;SDS011;15337;48.202;12.770;2022-10-16T03:45:29;12.33;;;4.90;;
4363;SDS011;15337;48.202;12.770;2022-10-16T03:47:56;11.40;;;4.23;;
4363;SDS011;15337;48.202;12.770;2022-10-16T03:50:22;5.47;;;4.10;;
4363;SDS011;15337;48.202;12.770;2022-10-16T03:52:49;9.30;;;4.60;;
4363;SDS011;15337;48.202;12.770;2022-10-16T03:55:16;5.40;;;4.63;;
4363;SDS011;15337;48.202;12.770;2022-10-16T03:57:44;9.70;;;4.90;;
4363;SDS011;15337;48.202;12.770;2022-10-16T04:00:11;11.73;;;5.50;;
4363;SDS011;15337;48.202;12.770;2022-10-16T04:02:39;11.20;;;6.33;;
4363;SDS011;15337;48.202;12.770;2022-10-16T04:05:06;7.73;;;6.20;;
4363;SDS011;15337;48.202;12.770;2022-10-16T04:07:34;9.30;;;5.57;;
4363;SDS011;15337;48.202;12.770;2022-10-16T04:10:01;9.10;;;4.10;;
4363;SDS011;15337;48.202;12.770;2022-10-16T04:12:28;9.10;;;4.20;;
4363;SDS011;15337;48.202;12.770;2022-10-16T04:14:56;5.33;;;4.70;;
4363;SDS011;15337;48.202;12.770;2022-10-16T04:17:23;10.83;;;4.30;;
4363;SDS011;15337;48.202;12.770;2022-10-16T04:19:49;7.20;;;4.07;;
4363;SDS011;15337;48.202;12.770;2022-10-16T04:22:16;13.10;;;4.80;;
4363;SDS011;15337;48.202;12.770;2022-10-16T04:24:43;17.93;;;5.20;;
4363;SDS011;15337;48.202;12.770;2022-10-16T04:27:10;6.73;;;6.13;;
4363;SDS011;15337;48.202;12.770;2022-10-16T04:29:37;13.43;;;4.10;;
4363;SDS011;15337;48.202;12.770;2022-10-16T04:32:06;11.30;;;5.30;;
4363;SDS011;15337;48.202;12.770;2022-10-16T04:34:34;6.50;;;6.10;;
4363;SDS011;15337;48.202;12.770;2022-10-16T04:37:02;13.43;;;6.80;;
4363;SDS011;15337;48.202;12.770;2022-10-16T04:39:29;4.67;;;4.37;;
4363;SDS011;15337;48.202;12.770;2022-10-16T04:41:56;5.27;;;4.53;;
4363;SDS011;15337;48.202;12.770;2022-10-16T04:44:23;8.30;;;4.83;;
4363;SDS011;15337;48.202;12.770;2022-10-16T04:46:50;4.80;;;4.30;;
4363;SDS011;15337;48.202;12.770;2022-10-16T04:49:19;8.60;;;5.97;;
4363;SDS011;15337;48.202;12.770;2022-10-16T04:51:45;6.80;;;6.03;;
4363;SDS011;15337;48.202;12.770;2022-10-16T04:54:12;13.83;;;6.10;;
4363;SDS011;15337;48.202;12.770;2022-10-16T04:56:39;6.87;;;6.13;;
4363;SDS011;15337;48.202;12.770;2022-10-16T04:59:11;8.80;;;6.67;;
4363;SDS011;15337;48.202;12.770;2022-10-16T05:01:38;11.50;;;8.47;;
4363;SDS011;15337;48.202;12.770;2022-10-16T05:04:05;6.80;;;6.30;;
4363;SDS011;15337;48.202;12.770;2022-10-16T05:06:33;8.47;;;7.40;;
4363;SDS011;15337;48.202;12.770;2022-10-16T05:09:00;13.37;;;7.97;;
4363;SDS011;15337;48.202;12.770;2022-10-16T05:11:27;8.50;;;7.90;;
4363;SDS011;15337;48.202;12.770;2022-10-16T05:13:54;12.57;;;9.50;;
4363;SDS011;15337;48.202;12.770;2022-10-16T05:16:21;14.03;;;9.23;;
4363;SDS011;15337;48.202;12.770;2022-10-16T05:18:48;11.83;;;6.50;;
4363;SDS011;15337;48.202;12.770;2022-10-16T05:21:15;12.23;;;6.73;;
4363;SDS011;15337;48.202;12.770;2022-10-16T05:23:43;12.50;;;9.20;;
4363;SDS011;15337;48.202;12.770;2022-10-16T05:26:10;7.60;;;6.80;;
4363;SDS011;15337;48.202;12.770;2022-10-16T05:28:37;6.43;;;6.00;;
4363;SDS011;15337;48.202;12.770;2022-10-16T05:31:04;16.60;;;7.70;;
4363;SDS011;15337;48.202;12.770;2022-10-16T05:33:32;6.97;;;6.57;;
4363;SDS011;15337;48.202;12.770;2022-10-16T05:36:00;6.73;;;6.13;;
4363;SDS011;15337;48.202;12.770;2022-10-16T05:38:28;5.60;;;5.20;;
4363;SDS011;15337;48.202;12.770;2022-10-16T05:40:56;5.30;;;5.00;;
4363;SDS011;15337;48.202;12.770;2022-10-16T05:43:23;7.33;;;5.20;;
4363;SDS011;15337;48.202;12.770;2022-10-16T05:45:54;7.30;;;5.13;;
4363;SDS011;15337;48.202;12.770;2022-10-16T05:48:21;6.63;;;6.00;;
4363;SDS011;15337;48.202;12.770;2022-10-16T05:50:48;5.43;;;5.13;;
4363;SDS011;15337;48.202;12.770;2022-10-16T05:53:22;6.47;;;5.87;;
4363;SDS011;15337;48.202;12.770;2022-10-16T05:55:51;10.43;;;7.83;;
4363;SDS011;15337;48.202;12.770;2022-10-16T05:58:20;8.10;;;7.57;;
4363;SDS011;15337;48.202;12.770;2022-10-16T06:00:52;8.63;;;8.13;;
4363;SDS011;15337;48.202;12.770;2022-10-16T06:03:20;11.27;;;8.60;;
4363;SDS011;15337;48.202;12.770;2022-10-16T06:05:47;8.97;;;6.67;;
4363;SDS011;15337;48.202;12.770;2022-10-16T06:08:14;15.23;;;6.60;;
4363;SDS011;15337;48.202;12.770;2022-10-16T06:10:41;7.40;;;7.00;;
4363;SDS011;15337;48.202;12.770;2022-10-16T06:13:08;11.43;;;6.47;;
4363;SDS011;15337;48.202;12.770;2022-10-16T06:15:36;8.90;;;5.57;;
4363;SDS011;15337;48.202;12.770;2022-10-16T06:18:04;5.43;;;3.93;;
4363;SDS011;15337;48.202;12.770;2022-10-16T06:20:31;4.00;;;3.70;;
4363;SDS011;15337;48.202;12.770;2022-10-16T06:22:58;4.10;;;3.50;;
4363;SDS011;15337;48.202;12.770;2022-10-16T06:25:25;7.50;;;3.97;;
4363;SDS011;15337;48.202;12.770;2022-10-16T06:27:52;11.43;;;4.50;;
4363;SDS011;15337;48.202;12.770;2022-10-16T06:30:18;4.63;;;4.23;;
4363;SDS011;15337;48.202;12.770;2022-10-16T06:32:47;6.40;;;4.53;;
4363;SDS011;15337;48.202;12.770;2022-10-16T06:35:13;5.63;;;5.33;;
4363;SDS011;15337;48.202;12.770;2022-10-16T06:37:40;5.47;;;4.90;;
4363;SDS011;15337;48.202;12.770;2022-10-16T06:40:07;5.17;;;4.83;;
4363;SDS011;15337;48.202;12.770;2022-10-16T06:42:34;8.03;;;5.10;;
4363;SDS011;15337;48.202;12.770;2022-10-16T06:45:01;11.33;;;4.93;;
4363;SDS011;15337;48.202;12.770;2022-10-16T06:47:28;5.67;;;5.37;;
4363;SDS011;15337;48.202;12.770;2022-10-16T06:49:57;4.77;;;4.37;;
4363;SDS011;15337;48.202;12.770;2022-10-16T06:52:23;5.23;;;4.03;;
4363;SDS011;15337;48.202;12.770;2022-10-16T06:54:50;6.00;;;5.10;;
4363;SDS011;15337;48.202;12.770;2022-10-16T06:57:17;7.70;;;7.17;;
4363;SDS011;15337;48.202;12.770;2022-10-16T06:59:44;6.10;;;5.60;;
4363;SDS011;15337;48.202;12.770;2022-10-16T07:02:11;4.70;;;4.40;;
4363;SDS011;15337;48.202;12.770;2022-10-16T07:04:38;6.07;;;5.53;;
4363;SDS011;15337;48.202;12.770;2022-10-16T07:07:06;5.17;;;4.77;;
4363;SDS011;15337;48.202;12.770;2022-10-16T07:09:33;10.97;;;4.27;;
4363;SDS011;15337;48.202;12.770;2022-10-16T07:12:00;5.03;;;3.30;;
4363;SDS011;15337;48.202;12.770;2022-10-16T07:14:27;3.50;;;3.30;;
4363;SDS011;15337;48.202;12.770;2022-10-16T07:16:55;4.33;;;3.67;;
4363;SDS011;15337;48.202;12.770;2022-10-16T07:19:22;3.67;;;3.47;;
4363;SDS011;15337;48.202;12.770;2022-10-16T07:21:50;7.10;;;3.17;;
4363;SDS011;15337;48.202;12.770;2022-10-16T07:24:18;3.47;;;3.17;;
4363;SDS011;15337;48.202;12.770;2022-10-16T07:26:45;3.37;;;3.03;;
4363;SDS011;15337;48.202;12.770;2022-10-16T07:29:12;3.30;;;3.00;;
4363;SDS011;15337;48.202;12.770;2022-10-16T07:31:41;5.97;;;3.00;;
4363;SDS011;15337;48.202;12.770;2022-10-16T07:34:08;9.88;;;3.58;;
4363;SDS011;15337;48.202;12.770;2022-10-16T07:36:36;3.40;;;3.10;;
4363;SDS011;15337;48.202;12.770;2022-10-16T07:39:03;6.47;;;6.03;;
4363;SDS011;15337;48.202;12.770;2022-10-16T07:41:31;5.63;;;5.15;;
4363;SDS011;15337;48.202;12.770;2022-10-16T07:44:01;6.47;;;5.97;;
4363;SDS011;15337;48.202;12.770;2022-10-16T07:46:29;7.18;;;6.65;;
4363;SDS011;15337;48.202;12.770;2022-10-16T07:48:58;3.63;;;3.42;;
4363;SDS011;15337;48.202;12.770;2022-10-16T07:51:25;6.93;;;3.58;;
4363;SDS011;15337;48.202;12.770;2022-10-16T07:53:52;4.72;;;3.33;;
4363;SDS011;15337;48.202;12.770;2022-10-16T07:56:20;4.57;;;3.00;;
4363;SDS011;15337;48.202;12.770;2022-10-16T07:58:49;6.28;;;3.00;;
4363;SDS011;15337;48.202;12.770;2022-10-16T08:01:16;3.75;;;2.90;;
4363;SDS011;15337;48.202;12.770;2022-10-16T08:03:45;6.47;;;3.05;;
4363;SDS011;15337;48.202;12.770;2022-10-16T08:06:13;5.80;;;3.10;;
4363;SDS011;15337;48.202;12.770;2022-10-16T08:08:40;6.10;;;2.78;;
4363;SDS011;15337;48.202;12.770;2022-10-16T08:11:08;3.33;;;3.13;;
4363;SDS011;15337;48.202;12.770;2022-10-16T08:13:35;3.47;;;2.97;;
4363;SDS011;15337;48.202;12.770;2022-10-16T08:16:03;3.63;;;3.42;;
4363;SDS011;15337;48.202;12.770;2022-10-16T08:18:33;4.03;;;3.35;;
4363;SDS011;15337;48.202;12.770;2022-10-16T08:21:00;2.50;;;2.30;;
4363;SDS011;15337;48.202;12.770;2022-10-16T08:23:27;4.78;;;3.05;;
4363;SDS011;15337;48.202;12.770;2022-10-16T08:25:54;3.78;;;3.10;;
4363;SDS011;15337;48.202;12.770;2022-10-16T08:28:22;5.72;;;2.80;;
4363;SDS011;15337;48.202;12.770;2022-10-16T08:30:49;9.32;;;2.67;;
4363;SDS011;15337;48.202;12.770;2022-10-16T08:33:17;3.25;;;2.92;;
4363;SDS011;15337;48.202;12.770;2022-10-16T08:35:49;2.78;;;2.67;;
4363;SDS011;15337;48.202;12.770;2022-10-16T08:38:17;3.97;;;2.83;;
4363;SDS011;15337;48.202;12.770;2022-10-16T08:40:44;8.05;;;3.65;;
4363;SDS011;15337;48.202;12.770;2022-10-16T08:43:18;2.50;;;2.30;;
4363;SDS011;15337;48.202;12.770;2022-10-16T08:46:09;3.80;;;2.72;;
4363;SDS011;15337;48.202;12.770;2022-10-16T08:48:49;7.72;;;2.67;;
4363;SDS011;15337;48.202;12.770;2022-10-16T08:51:18;2.95;;;2.40;;
4363;SDS011;15337;48.202;12.770;2022-10-16T08:53:49;2.60;;;2.17;;
4363;SDS011;15337;48.202;12.770;2022-10-16T08:56:19;2.75;;;2.55;;
4363;SDS011;15337;48.202;12.770;2022-10-16T08:58:46;2.72;;;2.53;;
4363;SDS011;15337;48.202;12.770;2022-10-16T09:01:14;3.60;;;2.20;;
4363;SDS011;15337;48.202;12.770;2022-10-16T09:03:48;9.18;;;2.60;;
4363;SDS011;15337;48.202;12.770;2022-10-16T09:06:30;4.07;;;2.55;;
4363;SDS011;15337;48.202;12.770;2022-10-16T09:09:19;3.47;;;2.55;;
4363;SDS011;15337;48.202;12.770;2022-10-16T09:12:07;2.40;;;2.20;;
4363;SDS011;15337;48.202;12.770;2022-10-16T09:14:41;4.03;;;2.50;;
4363;SDS011;15337;48.202;12.770;2022-10-16T09:17:21;2.08;;;1.98;;
4363;SDS011;15337;48.202;12.770;2022-10-16T09:20:07;3.35;;;2.22;;
4363;SDS011;15337;48.202;12.770;2022-10-16T09:22:57;2.85;;;2.28;;
4363;SDS011;15337;48.202;12.770;2022-10-16T09:25:36;2.20;;;2.10;;
4363;SDS011;15337;48.202;12.770;2022-10-16T09:28:07;2.85;;;2.05;;
4363;SDS011;15337;48.202;12.770;2022-10-16T09:30:35;2.15;;;2.03;;
4363;SDS011;15337;48.202;12.770;2022-10-16T09:33:03;3.03;;;1.85;;
4363;SDS011;15337;48.202;12.770;2022-10-16T09:35:33;7.93;;;2.28;;
4363;SDS011;15337;48.202;12.770;2022-10-16T09:38:03;3.05;;;2.10;;
4363;SDS011;15337;48.202;12.770;2022-10-16T09:40:31;2.58;;;2.47;;
4363;SDS011;15337;48.202;12.770;2022-10-16T09:43:06;4.10;;;3.78;;
4363;SDS011;15337;48.202;12.770;2022-10-16T09:45:52;2.30;;;2.20;;
4363;SDS011;15337;48.202;12.770;2022-10-16T09:48:23;2.25;;;2.15;;
4363;SDS011;15337;48.202;12.770;2022-10-16T09:50:58;3.10;;;2.90;;
4363;SDS011;15337;48.202;12.770;2022-10-16T09:53:27;3.78;;;3.53;;
4363;SDS011;15337;48.202;12.770;2022-10-16T09:56:09;2.63;;;2.42;;
4363;SDS011;15337;48.202;12.770;2022-10-16T09:58:41;7.28;;;1.98;;
4363;SDS011;15337;48.202;12.770;2022-10-16T10:01:11;3.25;;;2.00;;
4363;SDS011;15337;48.202;12.770;2022-10-16T10:03:40;3.15;;;1.77;;
4363;SDS011;15337;48.202;12.770;2022-10-16T10:06:23;2.10;;;1.90;;
4363;SDS011;15337;48.202;12.770;2022-10-16T10:08:56;10.40;;;2.15;;
4363;SDS011;15337;48.202;12.770;2022-10-16T10:14:23;1.85;;;1.75;;
4363;SDS011;15337;48.202;12.770;2022-10-16T10:17:01;15.68;;;10.02;;
4363;SDS011;15337;48.202;12.770;2022-10-16T10:19:37;2.97;;;2.78;;
4363;SDS011;15337;48.202;12.770;2022-10-16T10:22:15;1.80;;;1.70;;
4363;SDS011;15337;48.202;12.770;2022-10-16T10:25:16;3.15;;;1.95;;
4363;SDS011;15337;48.202;12.770;2022-10-16T10:27:56;4.20;;;2.03;;
4363;SDS011;15337;48.202;12.770;2022-10-16T10:30:35;3.88;;;1.80;;
4363;SDS011;15337;48.202;12.770;2022-10-16T10:33:09;4.05;;;1.85;;
4363;SDS011;15337;48.202;12.770;2022-10-16T10:35:45;2.00;;;1.90;;
4363;SDS011;15337;48.202;12.770;2022-10-16T10:38:26;8.88;;;2.30;;
4363;SDS011;15337;48.202;12.770;2022-10-16T10:41:02;2.15;;;2.05;;
4363;SDS011;15337;48.202;12.770;2022-10-16T10:43:52;2.00;;;1.90;;
4363;SDS011;15337;48.202;12.770;2022-10-16T10:46:30;2.20;;;2.10;;
4363;SDS011;15337;48.202;12.770;2022-10-16T10:49:13;2.63;;;2.42;;
4363;SDS011;15337;48.202;12.770;2022-10-16T10:51:52;15.48;;;2.65;;
4363;SDS011;15337;48.202;12.770;2022-10-16T10:54:28;2.83;;;2.20;;
4363;SDS011;15337;48.202;12.770;2022-10-16T10:57:02;3.35;;;2.05;;
4363;SDS011;15337;48.202;12.770;2022-10-16T10:59:42;2.75;;;2.55;;
4363;SDS011;15337;48.202;12.770;2022-10-16T11:02:26;4.95;;;2.10;;
4363;SDS011;15337;48.202;12.770;2022-10-16T11:05:15;6.15;;;1.95;;
4363;SDS011;15337;48.202;12.770;2022-10-16T11:07:56;3.42;;;2.35;;
4363;SDS011;15337;48.202;12.770;2022-10-16T11:10:27;1.80;;;1.70;;
4363;SDS011;15337;48.202;12.770;2022-10-16T11:13:00;3.03;;;2.30;;
4363;SDS011;15337;48.202;12.770;2022-10-16T11:15:36;2.75;;;2.15;;
4363;SDS011;15337;48.202;12.770;2022-10-16T11:18:07;2.63;;;2.00;;
4363;SDS011;15337;48.202;12.770;2022-10-16T11:20:42;12.70;;;3.08;;
4363;SDS011;15337;48.202;12.770;2022-10-16T11:23:14;9.10;;;2.47;;
4363;SDS011;15337;48.202;12.770;2022-10-16T11:25:48;2.53;;;2.13;;
4363;SDS011;15337;48.202;12.770;2022-10-16T11:28:17;2.10;;;2.00;;
4363;SDS011;15337;48.202;12.770;2022-10-16T11:30:51;6.25;;;2.80;;
4363;SDS011;15337;48.202;12.770;2022-10-16T11:33:25;2.45;;;2.25;;
4363;SDS011;15337;48.202;12.770;2022-10-16T11:36:00;2.70;;;2.45;;
4363;SDS011;15337;48.202;12.770;2022-10-16T11:38:33;9.27;;;2.40;;
4363;SDS011;15337;48.202;12.770;2022-10-16T11:41:09;2.63;;;2.42;;
4363;SDS011;15337;48.202;12.770;2022-10-16T11:43:43;3.53;;;2.28;;
4363;SDS011;15337;48.202;12.770;2022-10-16T11:46:17;2.00;;;1.90;;
4363;SDS011;15337;48.202;12.770;2022-10-16T11:48:48;4.07;;;2.65;;
4363;SDS011;15337;48.202;12.770;2022-10-16T11:51:21;2.08;;;1.98;;
4363;SDS011;15337;48.202;12.770;2022-10-16T11:53:57;2.45;;;2.25;;
4363;SDS011;15337;48.202;12.770;2022-10-16T11:56:29;4.70;;;2.47;;
4363;SDS011;15337;48.202;12.770;2022-10-16T11:58:58;3.40;;;2.30;;
4363;SDS011;15337;48.202;12.770;2022-10-16T12:01:30;3.15;;;2.10;;
4363;SDS011;15337;48.202;12.770;2022-10-16T12:06:47;2.65;;;2.38;;
4363;SDS011;15337;48.202;12.770;2022-10-16T12:09:20;2.90;;;2.40;;
4363;SDS011;15337;48.202;12.770;2022-10-16T12:11:52;7.82;;;2.70;;
4363;SDS011;15337;48.202;12.770;2022-10-16T12:14:21;4.22;;;3.92;;
4363;SDS011;15337;48.202;12.770;2022-10-16T12:17:03;9.48;;;2.25;;
4363;SDS011;15337;48.202;12.770;2022-10-16T12:19:56;2.55;;;1.90;;
4363;SDS011;15337;48.202;12.770;2022-10-16T12:22:23;4.13;;;2.47;;
4363;SDS011;15337;48.202;12.770;2022-10-16T12:24:54;2.25;;;2.05;;
4363;SDS011;15337;48.202;12.770;2022-10-16T12:27:23;2.30;;;2.20;;
4363;SDS011;15337;48.202;12.770;2022-10-16T12:29:54;2.05;;;1.95;;
4363;SDS011;15337;48.202;12.770;2022-10-16T12:32:25;8.20;;;1.80;;
4363;SDS011;15337;48.202;12.770;2022-10-16T12:34:55;2.20;;;2.00;;
4363;SDS011;15337;48.202;12.770;2022-10-16T12:37:23;11.27;;;2.22;;
4363;SDS011;15337;48.202;12.770;2022-10-16T12:39:53;2.63;;;2.40;;
4363;SDS011;15337;48.202;12.770;2022-10-16T12:42:30;7.90;;;2.28;;
4363;SDS011;15337;48.202;12.770;2022-10-16T12:44:59;1.77;;;1.67;;
4363;SDS011;15337;48.202;12.770;2022-10-16T12:47:35;2.03;;;1.92;;
4363;SDS011;15337;48.202;12.770;2022-10-16T12:50:21;3.67;;;1.85;;
4363;SDS011;15337;48.202;12.770;2022-10-16T12:52:53;2.83;;;1.65;;
4363;SDS011;15337;48.202;12.770;2022-10-16T12:55:21;3.15;;;1.83;;
4363;SDS011;15337;48.202;12.770;2022-10-16T12:57:58;1.80;;;1.70;;
4363;SDS011;15337;48.202;12.770;2022-10-16T13:00:35;1.70;;;1.60;;
4363;SDS011;15337;48.202;12.770;2022-10-16T13:03:25;1.30;;;1.20;;
4363;SDS011;15337;48.202;12.770;2022-10-16T13:06:13;1.95;;;1.77;;
4363;SDS011;15337;48.202;12.770;2022-10-16T13:08:51;2.95;;;1.10;;
4363;SDS011;15337;48.202;12.770;2022-10-16T13:11:36;1.67;;;1.58;;
4363;SDS011;15337;48.202;12.770;2022-10-16T13:14:40;1.77;;;1.30;;
4363;SDS011;15337;48.202;12.770;2022-10-16T13:17:21;12.18;;;2.40;;
4363;SDS011;15337;48.202;12.770;2022-10-16T13:19:58;2.22;;;1.65;;
4363;SDS011;15337;48.202;12.770;2022-10-16T13:22:33;5.72;;;1.67;;
4363;SDS011;15337;48.202;12.770;2022-10-16T13:25:13;1.42;;;1.33;;
4363;SDS011;15337;48.202;12.770;2022-10-16T13:27:50;2.08;;;1.70;;
4363;SDS011;15337;48.202;12.770;2022-10-16T13:30:23;1.80;;;1.33;;
4363;SDS011;15337;48.202;12.770;2022-10-16T13:32:53;2.08;;;1.60;;
4363;SDS011;15337;48.202;12.770;2022-10-16T13:35:25;2.75;;;1.25;;
4363;SDS011;15337;48.202;12.770;2022-10-16T13:38:02;2.80;;;1.58;;
4363;SDS011;15337;48.202;12.770;2022-10-16T13:40:31;5.57;;;1.30;;
4363;SDS011;15337;48.202;12.770;2022-10-16T13:42:59;1.40;;;1.30;;
4363;SDS011;15337;48.202;12.770;2022-10-16T13:45:28;1.50;;;1.40;;
4363;SDS011;15337;48.202;12.770;2022-10-16T13:48:01;6.57;;;1.63;;
4363;SDS011;15337;48.202;12.770;2022-10-16T13:50:29;1.83;;;1.65;;
4363;SDS011;15337;48.202;12.770;2022-10-16T13:53:05;1.25;;;1.15;;
4363;SDS011;15337;48.202;12.770;2022-10-16T13:55:32;1.75;;;1.45;;
4363;SDS011;15337;48.202;12.770;2022-10-16T13:58:07;2.92;;;1.52;;
4363;SDS011;15337;48.202;12.770;2022-10-16T14:00:38;1.73;;;1.63;;
4363;SDS011;15337;48.202;12.770;2022-10-16T14:03:11;2.78;;;1.70;;
4363;SDS011;15337;48.202;12.770;2022-10-16T14:05:42;2.70;;;1.15;;
4363;SDS011;15337;48.202;12.770;2022-10-16T14:08:12;2.15;;;1.70;;
4363;SDS011;15337;48.202;12.770;2022-10-16T14:10:39;5.32;;;2.15;;
4363;SDS011;15337;48.202;12.770;2022-10-16T14:13:07;2.95;;;2.22;;
4363;SDS011;15337;48.202;12.770;2022-10-16T14:15:45;2.67;;;2.47;;
4363;SDS011;15337;48.202;12.770;2022-10-16T14:18:15;6.57;;;1.80;;
4363;SDS011;15337;48.202;12.770;2022-10-16T14:20:46;8.20;;;2.47;;
4363;SDS011;15337;48.202;12.770;2022-10-16T14:23:19;4.18;;;2.83;;
4363;SDS011;15337;48.202;12.770;2022-10-16T14:25:48;10.70;;;2.40;;
4363;SDS011;15337;48.202;12.770;2022-10-16T14:28:15;3.80;;;3.30;;
4363;SDS011;15337;48.202;12.770;2022-10-16T14:30:53;2.25;;;2.15;;
4363;SDS011;15337;48.202;12.770;2022-10-16T14:33:22;10.07;;;3.05;;
4363;SDS011;15337;48.202;12.770;2022-10-16T14:36:01;7.18;;;2.53;;
4363;SDS011;15337;48.202;12.770;2022-10-16T14:38:31;7.35;;;2.75;;
4363;SDS011;15337;48.202;12.770;2022-10-16T14:40:59;4.20;;;2.28;;
4363;SDS011;15337;48.202;12.770;2022-10-16T14:43:29;4.40;;;2.80;;
4363;SDS011;15337;48.202;12.770;2022-10-16T14:46:01;4.03;;;2.55;;
4363;SDS011;15337;48.202;12.770;2022-10-16T14:48:29;3.42;;;2.40;;
4363;SDS011;15337;48.202;12.770;2022-10-16T14:50:56;3.65;;;2.83;;
4363;SDS011;15337;48.202;12.770;2022-10-16T14:53:23;2.60;;;2.40;;
4363;SDS011;15337;48.202;12.770;2022-10-16T14:55:50;3.05;;;2.20;;
4363;SDS011;15337;48.202;12.770;2022-10-16T14:58:18;2.00;;;1.90;;
4363;SDS011;15337;48.202;12.770;2022-10-16T15:00:47;3.13;;;2.92;;
4363;SDS011;15337;48.202;12.770;2022-10-16T15:03:16;3.75;;;2.08;;
4363;SDS011;15337;48.202;12.770;2022-10-16T15:05:43;2.47;;;2.00;;
4363;SDS011;15337;48.202;12.770;2022-10-16T15:08:10;3.92;;;2.45;;
4363;SDS011;15337;48.202;12.770;2022-10-16T15:10:38;2.30;;;2.10;;
4363;SDS011;15337;48.202;12.770;2022-10-16T15:13:08;2.30;;;2.20;;